createdAt,value
2022-08-21T00:01:27.518Z,18.55
2022-08-21T00:04:14.657Z,18.47
2022-08-21T00:07:08.406Z,18.49
2022-08-21T00:09:54.897Z,18.18
2022-08-21T00:12:41.711Z,18.49
2022-08-21T00:15:30.317Z,18.40
2022-08-21T00:18:17.201Z,18.27
2022-08-21T00:21:04.452Z,18.53
2022-08-21T00:23:50.425Z,18.61
2022-08-21T00:26:36.935Z,18.44
2022-08-21T00:29:23.267Z,18.32
2022-08-21T00:32:09.561Z,18.34
2022-08-21T00:34:56.141Z,18.42
2022-08-21T00:37:43.485Z,18.56
2022-08-21T00:40:38.074Z,18.17
2022-08-21T00:43:30.387Z,18.37
2022-08-21T00:46:16.856Z,18.54
2022-08-21T00:49:05.195Z,18.42
2022-08-21T00:51:55.015Z,18.45
2022-08-21T00:54:46.326Z,18.33
2022-08-21T00:57:34.106Z,18.55
2022-08-21T01:00:25.550Z,18.50
2022-08-21T01:03:17.683Z,18.32
2022-08-21T01:06:05.314Z,18.54
2022-08-21T01:08:51.859Z,18.46
2022-08-21T01:11:38.656Z,18.82
2022-08-21T01:14:24.942Z,18.64
2022-08-21T01:17:12.685Z,18.99
2022-08-21T01:19:59.909Z,18.43
2022-08-21T01:22:46.793Z,18.31
2022-08-21T01:25:33.836Z,18.15
2022-08-21T01:28:20.929Z,18.32
2022-08-21T01:31:08.674Z,18.42
2022-08-21T01:33:56.128Z,18.47
2022-08-21T01:36:43.796Z,18.38
2022-08-21T01:39:30.569Z,18.34
2022-08-21T01:42:16.540Z,18.40
2022-08-21T01:45:03.300Z,18.48
2022-08-21T01:47:49.439Z,18.36
2022-08-21T01:50:35.848Z,18.15
2022-08-21T01:53:21.675Z,18.47
2022-08-21T01:56:19.878Z,18.18
2022-08-21T01:59:06.270Z,18.33
2022-08-21T02:01:55.052Z,18.22
2022-08-21T02:04:41.523Z,18.41
2022-08-21T02:07:40.259Z,18.25
2022-08-21T02:10:31.269Z,18.32
2022-08-21T02:13:18.261Z,18.52
2022-08-21T02:16:05.179Z,18.61
2022-08-21T02:18:51.463Z,18.32
2022-08-21T02:21:38.089Z,18.11
2022-08-21T02:24:24.164Z,18.46
2022-08-21T02:27:10.588Z,18.32
2022-08-21T02:29:59.025Z,18.38
2022-08-21T02:32:45.289Z,18.76
2022-08-21T02:35:31.883Z,18.59
2022-08-21T02:38:21.464Z,18.32
2022-08-21T02:41:10.419Z,18.19
2022-08-21T02:43:56.701Z,18.46
2022-08-21T02:46:42.929Z,18.41
2022-08-21T02:49:29.434Z,18.35
2022-08-21T02:52:15.728Z,18.62
2022-08-21T02:55:02.033Z,18.51
2022-08-21T02:57:49.243Z,18.26
2022-08-21T03:00:37.208Z,18.00
2022-08-21T03:03:23.869Z,18.45
2022-08-21T03:06:12.626Z,18.26
2022-08-21T03:08:58.767Z,18.13
2022-08-21T03:11:45.273Z,18.29
2022-08-21T03:14:31.419Z,18.65
2022-08-21T03:17:17.569Z,18.53
2022-08-21T03:20:05.784Z,18.33
2022-08-21T03:22:53.315Z,18.26
2022-08-21T03:25:40.525Z,18.00
2022-08-21T03:28:29.037Z,18.11
2022-08-21T03:31:15.234Z,18.20
2022-08-21T03:34:01.733Z,18.18
2022-08-21T03:36:49.993Z,18.13
2022-08-21T03:39:36.574Z,17.89
2022-08-21T03:42:23.106Z,17.88
2022-08-21T03:45:10.949Z,18.30
2022-08-21T03:47:59.654Z,17.98
2022-08-21T03:50:47.871Z,18.08
2022-08-21T03:53:34.962Z,18.67
2022-08-21T03:56:21.402Z,18.40
2022-08-21T03:59:07.839Z,18.03
2022-08-21T04:02:00.217Z,18.33
2022-08-21T04:04:46.690Z,17.94
2022-08-21T04:07:33.013Z,18.19
2022-08-21T04:10:19.431Z,18.18
2022-08-21T04:13:06.341Z,17.97
2022-08-21T04:15:53.093Z,18.20
2022-08-21T04:18:39.322Z,18.05
2022-08-21T04:21:25.741Z,18.17
2022-08-21T04:24:12.301Z,17.96
2022-08-21T04:26:58.813Z,18.16
2022-08-21T04:29:45.322Z,18.15
2022-08-21T04:32:31.785Z,18.26
2022-08-21T04:35:20.437Z,18.47
2022-08-21T04:38:06.977Z,18.16
2022-08-21T04:40:53.731Z,18.54
2022-08-21T04:43:40.588Z,18.44
2022-08-21T04:46:27.053Z,18.50
2022-08-21T04:49:13.290Z,18.27
2022-08-21T04:51:59.870Z,18.01
2022-08-21T04:54:46.641Z,18.26
2022-08-21T04:57:36.706Z,18.23
2022-08-21T05:00:34.918Z,18.54
2022-08-21T05:03:22.511Z,18.20
2022-08-21T05:06:12.034Z,18.62
2022-08-21T05:09:02.082Z,18.46
2022-08-21T05:11:49.875Z,18.14
2022-08-21T05:14:36.174Z,18.30
2022-08-21T05:17:22.753Z,18.40
2022-08-21T05:20:10.941Z,18.64
2022-08-21T05:22:57.747Z,18.74
2022-08-21T05:25:44.504Z,18.85
2022-08-21T05:28:33.107Z,18.39
2022-08-21T05:31:19.369Z,18.91
2022-08-21T05:34:07.419Z,18.74
2022-08-21T05:36:53.457Z,18.62
2022-08-21T05:40:20.083Z,18.76
2022-08-21T05:42:45.944Z,18.47
2022-08-21T05:45:44.229Z,18.66
2022-08-21T05:48:31.124Z,18.33
2022-08-21T05:51:18.556Z,18.75
2022-08-21T05:54:04.542Z,18.35
2022-08-21T05:56:50.920Z,18.83
2022-08-21T05:59:36.749Z,18.36
2022-08-21T06:02:23.298Z,18.62
2022-08-21T06:05:09.951Z,18.84
2022-08-21T06:07:56.250Z,18.94
2022-08-21T06:10:43.222Z,18.33
2022-08-21T06:13:29.664Z,18.34
2022-08-21T06:16:17.344Z,18.37
2022-08-21T06:19:03.712Z,18.41
2022-08-21T06:21:50.307Z,18.24
2022-08-21T06:24:37.049Z,18.29
2022-08-21T06:27:26.529Z,18.55
2022-08-21T06:30:13.522Z,18.86
2022-08-21T06:33:00.132Z,18.78
2022-08-21T06:35:46.578Z,18.33
2022-08-21T06:38:32.903Z,18.48
2022-08-21T06:41:23.753Z,18.71
2022-08-21T06:44:13.142Z,18.60
2022-08-21T06:46:59.648Z,18.83
2022-08-21T06:49:45.946Z,19.11
2022-08-21T06:52:32.375Z,18.91
2022-08-21T06:55:22.338Z,18.66
2022-08-21T06:58:11.140Z,18.61
2022-08-21T07:01:00.777Z,19.06
2022-08-21T07:03:47.263Z,19.04
2022-08-21T07:06:33.952Z,18.90
2022-08-21T07:09:24.412Z,19.08
2022-08-21T07:12:11.226Z,18.76
2022-08-21T07:14:57.426Z,19.00
2022-08-21T07:17:43.853Z,19.00
2022-08-21T07:20:31.428Z,19.08
2022-08-21T07:23:39.686Z,19.41
2022-08-21T07:26:26.903Z,19.52
2022-08-21T07:29:13.366Z,19.90
2022-08-21T07:32:00.765Z,19.41
2022-08-21T07:34:47.260Z,19.35
2022-08-21T07:37:33.142Z,19.32
2022-08-21T07:40:19.817Z,19.93
2022-08-21T07:43:05.799Z,20.17
2022-08-21T07:45:52.252Z,19.79
2022-08-21T07:48:38.887Z,19.89
2022-08-21T07:51:28.078Z,19.72
2022-08-21T07:54:17.090Z,20.22
2022-08-21T07:57:04.294Z,19.98
2022-08-21T07:59:50.540Z,19.88
2022-08-21T08:02:37.029Z,20.10
2022-08-21T08:05:26.887Z,20.39
2022-08-21T08:08:12.993Z,20.09
2022-08-21T08:10:59.922Z,20.48
2022-08-21T08:13:51.458Z,20.40
2022-08-21T08:16:38.085Z,20.55
2022-08-21T08:19:25.640Z,20.81
2022-08-21T08:22:16.891Z,20.43
2022-08-21T08:25:06.389Z,20.69
2022-08-21T08:27:55.535Z,20.63
2022-08-21T08:30:41.938Z,21.24
2022-08-21T08:33:28.617Z,20.38
2022-08-21T08:36:19.201Z,20.61
2022-08-21T08:39:06.970Z,20.50
2022-08-21T08:42:33.686Z,21.20
2022-08-21T08:45:18.579Z,21.27
2022-08-21T08:48:07.353Z,20.97
2022-08-21T08:51:02.181Z,21.05
2022-08-21T08:53:53.232Z,21.28
2022-08-21T08:56:39.925Z,21.30
2022-08-21T08:59:36.720Z,21.35
2022-08-21T09:02:28.679Z,21.49
2022-08-21T09:05:24.144Z,21.24
2022-08-21T09:08:35.283Z,20.70
2022-08-21T09:11:30.709Z,20.66
2022-08-21T09:14:47.657Z,20.99
2022-08-21T09:18:01.764Z,21.28
2022-08-21T09:21:10.813Z,21.24
2022-08-21T09:24:14.058Z,21.65
2022-08-21T09:27:09.690Z,21.07
2022-08-21T09:29:56.074Z,20.93
2022-08-21T09:32:42.645Z,21.14
2022-08-21T09:35:28.951Z,21.37
2022-08-21T09:38:26.020Z,21.86
2022-08-21T09:41:13.996Z,22.13
2022-08-21T09:44:00.717Z,21.47
2022-08-21T09:46:53.581Z,22.15
2022-08-21T09:49:43.599Z,22.35
2022-08-21T09:52:30.110Z,21.70
2022-08-21T09:55:39.873Z,21.39
2022-08-21T09:58:33.613Z,22.40
2022-08-21T10:01:23.179Z,22.76
2022-08-21T10:04:10.270Z,22.60
2022-08-21T10:07:07.317Z,23.31
2022-08-21T10:10:27.788Z,22.87
2022-08-21T10:13:22.382Z,22.93
2022-08-21T10:16:29.425Z,22.95
2022-08-21T10:19:24.836Z,22.29
2022-08-21T10:22:23.743Z,22.85
2022-08-21T10:25:32.613Z,23.15
2022-08-21T10:29:16.767Z,23.60
2022-08-21T10:32:57.822Z,23.46
2022-08-21T10:36:00.813Z,23.75
2022-08-21T10:39:25.783Z,23.94
2022-08-21T10:45:26.686Z,23.47
2022-08-21T10:48:36.770Z,24.15
2022-08-21T10:51:44.121Z,23.92
2022-08-21T10:54:38.205Z,24.32
2022-08-21T10:57:42.405Z,23.61
2022-08-21T11:00:38.787Z,24.03
2022-08-21T11:03:42.830Z,24.57
2022-08-21T11:06:33.319Z,23.32
2022-08-21T11:09:32.516Z,23.55
2022-08-21T11:15:57.088Z,24.41
2022-08-21T11:19:00.073Z,23.73
2022-08-21T11:25:38.766Z,23.70
2022-08-21T11:28:41.489Z,23.26
2022-08-21T11:31:30.749Z,23.26
2022-08-21T11:34:48.765Z,22.88
2022-08-21T11:37:46.666Z,23.30
2022-08-21T11:40:52.617Z,23.52
2022-08-21T11:43:43.941Z,23.09
2022-08-21T11:47:15.859Z,22.89
2022-08-21T11:50:35.450Z,23.22
2022-08-21T11:53:44.079Z,23.48
2022-08-21T11:56:46.772Z,22.87
2022-08-21T11:59:44.353Z,23.10
2022-08-21T12:02:38.733Z,23.39
2022-08-21T12:05:47.573Z,23.01
2022-08-21T12:11:58.759Z,22.27
2022-08-21T12:15:10.815Z,22.49
2022-08-21T12:18:22.738Z,22.99
2022-08-21T12:21:31.762Z,22.58
2022-08-21T12:24:29.188Z,22.74
2022-08-21T12:27:32.761Z,22.89
2022-08-21T12:30:37.800Z,22.57
2022-08-21T12:33:32.981Z,22.47
2022-08-21T12:36:44.095Z,22.68
2022-08-21T12:39:38.998Z,22.60
2022-08-21T12:45:45.839Z,22.32
2022-08-21T12:54:50.329Z,22.15
2022-08-21T13:00:54.994Z,21.71
2022-08-21T13:03:43.784Z,21.93
2022-08-21T13:06:43.816Z,21.92
2022-08-21T13:09:43.745Z,22.34
2022-08-21T13:15:47.938Z,22.46
2022-08-21T13:18:56.050Z,21.93
2022-08-21T13:21:51.787Z,22.11
2022-08-21T13:28:07.836Z,21.67
2022-08-21T13:30:58.080Z,21.61
2022-08-21T13:33:57.077Z,21.98
2022-08-21T13:36:48.894Z,21.54
2022-08-21T13:39:40.823Z,21.28
2022-08-21T13:48:31.977Z,21.26
2022-08-21T13:51:32.825Z,21.06
2022-08-21T13:54:47.752Z,20.77
2022-08-21T13:57:41.298Z,20.57
2022-08-21T14:01:00.777Z,20.66
2022-08-21T14:04:07.390Z,20.71
2022-08-21T14:07:05.008Z,21.35
2022-08-21T14:09:56.721Z,20.77
2022-08-21T14:12:52.085Z,20.84
2022-08-21T14:15:56.999Z,20.40
2022-08-21T14:19:21.010Z,20.33
2022-08-21T14:22:24.102Z,20.95
2022-08-21T14:25:23.786Z,20.59
2022-08-21T14:28:40.916Z,20.49
2022-08-21T14:31:43.085Z,20.88
2022-08-21T14:34:39.793Z,20.49
2022-08-21T14:40:33.407Z,20.50
2022-08-21T14:43:35.058Z,21.15
2022-08-21T14:49:39.768Z,20.71
2022-08-21T14:52:34.743Z,20.99
2022-08-21T14:55:33.742Z,20.59
2022-08-21T14:58:37.713Z,20.14
2022-08-21T15:01:40.040Z,20.31
2022-08-21T15:04:35.745Z,20.61
2022-08-21T15:07:22.051Z,20.75
2022-08-21T15:10:31.251Z,20.80
2022-08-21T15:13:28.764Z,20.23
2022-08-21T15:16:18.217Z,20.45
2022-08-21T15:19:08.920Z,20.51
2022-08-21T15:21:58.930Z,20.33
2022-08-21T15:27:56.786Z,20.63
2022-08-21T15:30:59.916Z,20.48
2022-08-21T15:34:01.062Z,20.41
2022-08-21T15:40:06.829Z,19.88
2022-08-21T15:43:06.055Z,20.52
2022-08-21T15:45:54.696Z,20.46
2022-08-21T15:48:48.768Z,20.15
2022-08-21T15:54:38.238Z,19.70
2022-08-21T15:57:29.798Z,20.42
2022-08-21T16:00:24.268Z,20.51
2022-08-21T16:06:38.492Z,19.49
2022-08-21T16:09:38.936Z,19.18
2022-08-21T16:12:36.746Z,19.43
2022-08-21T16:15:38.795Z,19.22
2022-08-21T16:18:40.879Z,18.92
2022-08-21T16:21:36.786Z,19.56
2022-08-21T16:24:35.808Z,19.40
2022-08-21T16:27:28.086Z,19.39
2022-08-21T16:30:23.188Z,19.59
2022-08-21T16:33:45.230Z,19.45
2022-08-21T16:36:42.981Z,19.40
2022-08-21T16:39:34.870Z,19.09
2022-08-21T16:42:33.765Z,19.38
2022-08-21T16:45:36.190Z,19.36
2022-08-21T16:48:39.833Z,19.01
2022-08-21T16:51:39.007Z,19.35
2022-08-21T16:54:39.789Z,19.39
2022-08-21T16:57:30.737Z,19.31
2022-08-21T17:00:22.917Z,18.94
2022-08-21T17:06:16.331Z,19.31
2022-08-21T17:09:08.937Z,19.29
2022-08-21T17:12:02.771Z,19.46
2022-08-21T17:15:06.769Z,19.67
2022-08-21T17:18:07.749Z,19.85
2022-08-21T17:20:55.988Z,19.88
2022-08-21T17:23:49.957Z,19.53
2022-08-21T17:38:54.782Z,19.38
2022-08-21T17:41:58.215Z,19.31
2022-08-21T17:44:50.069Z,19.18
2022-08-21T17:47:50.974Z,19.40
2022-08-21T17:50:58.812Z,19.42
2022-08-21T18:00:03.450Z,19.32
2022-08-21T18:03:22.397Z,18.65
2022-08-21T18:06:27.803Z,18.59
2022-08-21T18:09:18.543Z,19.15
2022-08-21T18:12:21.405Z,18.83
2022-08-21T18:15:16.981Z,18.63
2022-08-21T18:18:28.843Z,18.84
2022-08-21T18:21:30.909Z,18.82
2022-08-21T18:24:32.160Z,18.68
2022-08-21T18:27:37.779Z,18.57
2022-08-21T18:30:44.840Z,18.58
2022-08-21T18:36:52.206Z,19.07
2022-08-21T18:39:50.902Z,19.26
2022-08-21T18:42:58.520Z,19.44
2022-08-21T18:48:51.675Z,18.78
2022-08-21T18:51:46.763Z,18.59
2022-08-21T18:54:54.132Z,18.32
2022-08-21T18:58:01.374Z,18.33
2022-08-21T19:01:08.645Z,18.46
2022-08-21T19:04:43.282Z,18.64
2022-08-21T19:07:47.810Z,18.07
2022-08-21T19:17:01.074Z,18.31
2022-08-21T19:19:50.104Z,18.52
2022-08-21T19:23:03.350Z,18.19
2022-08-21T19:29:08.129Z,18.10
2022-08-21T19:32:15.713Z,17.97
2022-08-21T19:35:19.012Z,18.00
2022-08-21T19:38:27.898Z,18.07
2022-08-21T19:41:17.913Z,18.17
2022-08-21T19:47:31.465Z,18.27
2022-08-21T19:50:45.675Z,17.98
2022-08-21T19:57:06.843Z,18.60
2022-08-21T20:02:56.065Z,18.34
2022-08-21T20:05:51.360Z,18.21
2022-08-21T20:08:57.855Z,17.82
2022-08-21T20:12:10.253Z,18.12
2022-08-21T20:21:17.675Z,17.94
2022-08-21T20:24:14.692Z,17.95
2022-08-21T20:30:18.426Z,17.56
2022-08-21T20:33:24.962Z,17.48
2022-08-21T20:36:14.822Z,17.26
2022-08-21T20:39:17.117Z,17.57
2022-08-21T20:42:07.034Z,17.65
2022-08-21T20:44:59.284Z,17.66
2022-08-21T20:47:52.638Z,17.60
2022-08-21T20:50:48.818Z,17.44
2022-08-21T20:57:01.977Z,17.77
2022-08-21T20:59:53.022Z,17.51
2022-08-21T21:06:00.292Z,17.35
2022-08-21T21:09:03.883Z,17.61
2022-08-21T21:11:54.156Z,17.61
2022-08-21T21:14:52.653Z,17.48
2022-08-21T21:17:49.545Z,17.92
2022-08-21T21:20:50.280Z,17.58
2022-08-21T21:24:14.988Z,17.69
2022-08-21T21:27:18.642Z,17.67
2022-08-21T21:30:14.447Z,17.31
2022-08-21T21:36:08.987Z,17.23
2022-08-21T21:39:21.550Z,17.39
2022-08-21T21:43:00.304Z,17.65
2022-08-21T21:45:50.631Z,17.28
2022-08-21T21:48:49.759Z,17.38
2022-08-21T21:52:01.755Z,17.38
2022-08-21T21:55:00.592Z,17.38
2022-08-21T21:58:04.512Z,17.73
2022-08-21T22:00:58.803Z,18.63
2022-08-21T22:03:54.422Z,17.96
2022-08-21T22:07:17.789Z,17.76
2022-08-21T22:10:30.027Z,17.62
2022-08-21T22:13:39.093Z,17.46
2022-08-21T22:16:27.113Z,16.83
2022-08-21T22:19:20.468Z,17.02
2022-08-21T22:22:10.483Z,16.72
2022-08-21T22:25:16.907Z,16.78
2022-08-21T22:28:09.953Z,17.15
2022-08-21T22:31:10.327Z,17.06
2022-08-21T22:34:05.322Z,17.28
2022-08-21T22:36:59.895Z,17.42
2022-08-21T22:39:54.296Z,17.13
2022-08-21T22:42:41.638Z,17.97
2022-08-21T22:45:32.555Z,17.01
2022-08-21T22:48:22.775Z,16.89
2022-08-21T22:51:32.656Z,17.24
2022-08-21T22:54:35.206Z,17.46
2022-08-21T22:57:24.271Z,17.57
2022-08-21T23:00:15.112Z,17.71
2022-08-21T23:03:06.935Z,18.27
2022-08-21T23:09:21.090Z,17.18
2022-08-21T23:15:45.814Z,17.22
2022-08-21T23:18:44.650Z,17.34
2022-08-21T23:22:04.590Z,16.75
2022-08-21T23:25:00.615Z,16.84
2022-08-21T23:28:11.293Z,17.03
2022-08-21T23:31:06.719Z,16.84
2022-08-21T23:37:49.059Z,16.82
2022-08-21T23:40:53.009Z,16.76
2022-08-21T23:44:00.063Z,16.70
2022-08-21T23:47:10.333Z,16.66
2022-08-21T23:50:14.028Z,16.31
2022-08-21T23:53:14.785Z,16.70
2022-08-21T23:56:07.677Z,16.53
2022-08-21T23:59:28.339Z,16.72
